Station: Jervois  

  Atmospheric Gas Attenuation - ITU Rec 676-11   ----------------- dB/100km -----------------
Date Time Temp RH % AH g/m3 Dew Point Wind Direction Speed kph Gust kph Barometer mB Rainfall Since 9am 24GHz 47GHz 76GHz 122GHz 134GHz 241GHz
05/09 21:30 24.6 35 7.88 8.1 13 17 1017.3 0 17.6 22.1 32.5 85.1 78.0 268.2
05/09 21:20 24.7 35 7.92 8.2 11 15 1017.4 0 17.7 22.2 32.6 85.3 78.3 269.5
05/09 21:10 24.6 35 7.88 8.1 11 15 1017.3 0 17.6 22.1 32.5 85.1 78.0 268.2
05/09 21:00 24.8 35 7.97 8.3 9 15 1017.1 0 17.8 22.2 32.7 85.7 78.8 271.1
05/09 20:50 25.2 34 7.92 8.2 11 17 1017.2 0 17.6 22.0 32.4 84.8 77.9 267.8
05/09 20:40 25.3 34 7.96 8.3 13 17 1017 0 17.7 22.1 32.5 85.1 78.2 269.0
05/09 20:30 25.4 33 7.77 8 13 17 1016.9 0 17.3 21.8 31.8 83.2 76.0 261.3
05/09 20:20 25.9 33 7.99 8.4 11 15 1016.9 0 17.8 22.0 32.4 84.7 77.9 268.2
05/09 20:10 26 32 7.79 8 11 15 1016.8 0 17.3 21.7 31.6 82.8 75.6 260.2
05/09 20:00 26.3 32 7.92 8.3 11 15 1016.6 0 17.6 21.8 32.0 83.6 76.8 264.1
05/09 19:50 26.4 32 7.97 8.4 11 15 1016.5 0 17.7 21.8 32.1 84.0 77.2 265.7
05/09 19:40 26.5 31 7.76 8 11 15 1016.4 0 17.3 21.5 31.3 82.0 74.8 257.4
05/09 19:30 26.8 31 7.89 8.3 11 15 1016.2 0 17.5 21.6 31.7 82.8 75.9 261.3
05/09 19:20 27 30 7.72 8 11 13 1016.2 0 17.1 21.3 31.0 81.2 73.9 254.3
05/09 19:10 27.3 30 7.85 8.2 11 15 1016.1 0 17.4 21.4 31.3 82.0 75.0 258.2
05/09 19:00 27.8 29 7.8 8.1 9 13 1015.8 0 17.3 21.2 31.0 81.0 74.0 254.7
05/09 18:50 28.2 28 7.7 8 11 15 1015.6 0 17.1 21.0 30.5 79.8 72.6 249.7
05/09 18:40 28.8 27 7.67 7.9 11 17 1015.5 0 17.0 20.8 30.2 78.9 71.8 246.8
05/09 18:30 29.2 26 7.55 7.7 9 13 1015.3 0 16.7 20.6 29.6 77.5 70.2 241.2
05/09 18:20 29.7 25 7.46 7.6 9 15 1015.2 0 16.5 20.3 29.2 76.3 68.8 236.5
05/09 18:10 30.2 24 7.36 7.4 9 13 1015 0 16.3 20.1 28.7 75.0 67.4 231.5
05/09 18:00 30.9 23 7.32 7.4 11 17 1014.7 0 16.2 19.9 28.3 74.1 66.4 228.1
05/09 17:50 31.6 22 7.27 7.3 13 20 1014.7 0 16.0 19.7 27.9 73.0 65.3 224.5
05/09 17:40 32 21 7.09 7 13 20 1014.6 0 15.7 19.4 27.3 71.2 63.2 217.1
05/09 17:30 32.3 21 7.21 7.2 13 19 1014.5 0 15.9 19.5 27.5 71.9 64.2 220.5
05/09 17:20 32.4 21 7.24 7.3 13 22 1014.5 0 15.9 19.5 27.6 72.1 64.4 221.3
05/09 17:10 32.7 20 7.01 6.8 13 19 1014.4 0 15.5 19.1 26.8 70.0 61.9 212.6
05/09 17:00 32.9 20 7.08 7 13 20 1014.2 0 15.6 19.2 26.9 70.4 62.4 214.4
05/09 16:50 33.1 21 7.52 7.9 11 22 1014.3 0 16.5 19.7 28.2 73.7 66.6 229.1
05/09 16:40 33.2 20 7.2 7.2 13 28 1014.2 0 15.8 19.3 27.2 71.1 63.4 217.8
05/09 16:30 33.3 19 6.87 6.6 13 26 1014 0 15.2 18.9 26.2 68.4 60.1 206.3
05/09 16:20 33.4 20 7.27 7.4 13 24 1014.1 0 16.0 19.3 27.3 71.5 63.9 219.7
05/09 16:10 33.4 19 6.91 6.6 19 24 1014.1 0 15.2 18.9 26.3 68.6 60.4 207.4
05/09 16:00 33.3 20 7.24 7.3 15 26 1014 0 15.9 19.3 27.3 71.3 63.7 218.9
05/09 15:50 33.3 20 7.24 7.3 19 24 1014.1 0 15.9 19.3 27.3 71.3 63.7 218.9
05/09 15:40 32.4 21 7.24 7.3 9 15 1014.1 0 15.9 19.5 27.6 72.1 64.4 221.2
05/09 15:30 32.5 20 6.94 6.7 17 28 1014.2 0 15.3 19.1 26.7 69.6 61.4 210.7
05/09 15:20 34 19 7.13 7.1 13 28 1014.3 0 15.7 19.0 26.8 69.9 62.1 213.4
05/09 15:10 33.6 18 6.62 6 17 28 1014.4 0 14.6 18.5 25.4 66.3 57.5 197.3
05/09 15:00 34.5 18 6.94 6.7 9 19 1014.3 0 15.3 18.7 26.0 68.0 59.9 205.8
05/09 14:50 34.3 17 6.48 5.8 15 24 1014.4 0 14.3 18.2 24.8 64.7 55.7 191.0
05/09 14:40 34.1 17 6.42 5.6 15 24 1014.5 0 14.2 18.2 24.7 64.4 55.3 189.5
05/09 14:30 34.2 18 6.83 6.5 15 30 1014.4 0 15.0 18.6 25.8 67.4 59.1 202.9
05/09 14:20 34.2 18 6.83 6.5 19 24 1014.6 0 15.0 18.6 25.8 67.4 59.1 202.9
05/09 14:10 33.7 18 6.65 6.1 15 26 1014.8 0 14.7 18.5 25.5 66.4 57.8 198.1
05/09 14:00 33.9 18 6.72 6.3 13 22 1014.8 0 14.8 18.6 25.6 66.8 58.3 200.0
05/09 13:50 33.9 17 6.35 5.4 15 26 1015.1 0 14.1 18.2 24.6 64.0 54.8 187.7
05/09 13:40 33.7 18 6.65 6.1 13 19 1015.1 0 14.7 18.5 25.5 66.5 57.8 198.1
05/09 13:30 34.3 18 6.86 6.6 17 24 1015.3 0 15.1 18.7 25.9 67.6 59.4 203.8
05/09 13:20 33.6 17 6.25 5.2 13 24 1015.4 0 13.9 18.1 24.4 63.5 54.1 185.1
05/09 13:10 33.4 18 6.55 5.9 17 28 1015.6 0 14.5 18.5 25.3 66.0 57.0 195.6
05/09 13:00 33.2 19 6.84 6.5 17 30 1015.7 0 15.1 18.9 26.2 68.4 60.0 205.8
05/09 12:50 33.7 18 6.65 6.1 17 28 1015.9 0 14.7 18.6 25.5 66.5 57.8 198.3
05/09 12:40 33.6 18 6.62 6 17 28 1016.1 0 14.6 18.6 25.5 66.4 57.6 197.5
05/09 12:30 33.3 19 6.87 6.6 15 24 1016.1 0 15.2 18.9 26.3 68.6 60.2 206.7
05/09 12:20 32.9 19 6.73 6.2 22 33 1016.5 0 14.9 18.8 26.0 67.8 59.2 202.9
05/09 12:10 32.7 20 7.01 6.8 19 26 1016.7 0 15.5 19.2 26.9 70.2 62.0 213.0
05/09 12:00 32.5 20 6.94 6.7 19 32 1016.7 0 15.3 19.2 26.7 69.8 61.5 211.1
05/09 11:50 32.2 21 7.17 7.1 20 32 1017 0 15.8 19.5 27.5 71.9 64.0 219.9
05/09 11:40 32.2 21 7.17 7.1 22 35 1017.2 0 15.8 19.5 27.5 71.9 64.0 219.9
05/09 11:30 32.3 21 7.21 7.2 17 32 1017.2 0 15.9 19.6 27.6 72.2 64.3 221.0
05/09 11:20 31.7 22 7.31 7.4 19 26 1017.4 0 16.1 19.8 28.1 73.5 65.8 226.1
05/09 11:10 31.9 22 7.39 7.5 20 33 1017.6 0 16.3 19.9 28.3 74.0 66.4 228.4
05/09 11:00 31.8 23 7.68 8.1 20 35 1017.6 0 16.9 20.3 29.2 76.4 69.4 238.9
05/09 10:50 31.4 25 8.18 9 17 24 1017.7 0 17.9 21.0 30.9 80.9 74.9 258.1
05/09 10:40 31.2 24 7.77 8.2 20 30 1017.7 0 17.1 20.5 29.7 77.7 70.9 243.9
05/09 10:30 31.4 24 7.85 8.4 20 37 1017.8 0 17.2 20.6 29.9 78.2 71.5 246.2
05/09 10:20 31.2 25 8.09 8.8 26 39 1017.9 0 17.7 20.9 30.7 80.4 74.2 255.5
05/09 10:10 31.9 24 8.06 8.8 17 24 1017.9 0 17.6 20.7 30.4 79.5 73.2 252.3
05/09 10:00 31.9 26 8.73 10 15 20 1017.6 0 19.0 21.6 32.5 85.1 80.1 276.5
05/09 09:50 31.1 26 8.37 9.3 17 24 1017.8 0 18.3 21.3 31.6 82.8 77.1 266.0
05/09 09:40 30.7 28 8.82 10.1 17 24 1017.8 0 19.3 22.0 33.2 87.1 82.3 283.9
05/09 09:30 29.9 29 8.75 9.9 15 20 1017.7 0 19.1 22.1 33.3 87.3 82.3 284.0
05/09 09:20 29.1 31 8.95 10.3 13 20 1017.7 0 19.6 22.5 34.3 89.9 85.3 294.4
05/09 09:10 28.7 32 9.04 10.4 13 17 1017.7 0 19.8 22.7 34.8 91.2 86.7 299.3
05/09 09:00 28 32 8.7 9.8 13 17 1017.6 0 19.1 22.4 33.9 88.9 83.7 288.7
05/09 08:50 27 34 8.75 9.8 11 17 1017.6 0 19.3 22.7 34.5 90.4 85.3 294.1
05/09 08:40 26.1 36 8.81 9.9 15 19 1017.6 0 19.4 23.1 35.1 92.0 86.9 299.8
05/09 08:30 25.4 36 8.48 9.3 13 19 1017.5 0 18.8 22.8 34.2 89.7 83.9 289.2
05/09 08:20 25.2 38 8.85 9.9 13 19 1017.5 0 19.6 23.3 35.6 93.3 88.4 304.7
05/09 08:10 23.8 40 8.6 9.4 13 17 1017.4 0 19.1 23.3 35.3 92.6 87.0 299.7
05/09 08:00 22.9 42 8.58 9.3 13 17 1017.2 0 19.1 23.5 35.6 93.4 87.7 302.2
05/09 07:50 22.6 43 8.64 9.4 13 19 1017.3 0 19.3 23.7 36.0 94.3 88.8 305.8
05/09 07:40 23.1 41 8.47 9.1 13 19 1017.2 0 18.9 23.3 35.2 92.1 86.2 297.0
05/09 07:30 22.8 43 8.74 9.6 13 19 1016.9 0 19.5 23.8 36.2 95.0 89.7 309.1
05/09 07:20 22 45 8.73 9.5 13 17 1017 0 19.5 24.0 36.6 95.9 90.5 311.8
05/09 07:10 21 47 8.61 9.3 11 15 1016.8 0 19.3 24.0 36.6 95.9 90.2 310.5
05/09 07:00 21.1 47 8.66 9.4 11 15 1016.6 0 19.4 24.1 36.7 96.2 90.6 312.2
05/09 06:50 21 46 8.43 8.9 13 15 1016.4 0 18.9 23.8 35.9 94.1 88.0 302.9
05/09 06:40 21 46 8.43 8.9 13 15 1016.3 0 18.9 23.8 35.9 94.1 88.0 302.9
05/09 06:30 20.8 47 8.51 9.1 11 15 1016.1 0 19.1 23.9 36.3 95.1 89.1 306.9
05/09 06:20 20.8 47 8.51 9.1 11 13 1016.1 0 19.1 23.9 36.3 95.1 89.1 306.9
05/09 06:10 20.7 47 8.46 9 9 11 1016.1 0 19.0 23.9 36.1 94.7 88.7 305.2
05/09 06:00 20.9 47 8.56 9.2 9 11 1015.9 0 19.2 24.0 36.4 95.4 89.6 308.6
05/09 05:50 20.9 47 8.56 9.2 9 11 1015.8 0 19.2 24.0 36.4 95.4 89.6 308.6
05/09 05:40 20.5 50 8.9 9.7 11 13 1015.5 0 19.9 24.6 37.8 99.2 94.2 324.5
05/09 05:30 19 58 9.45 10.6 9 11 1015.4 0 21.1 25.8 40.6 106.7 102.9 354.8
05/09 05:20 19.3 57 9.45 10.6 0 7 1015.3 0 21.1 25.7 40.5 106.3 102.5 353.4
05/09 05:10 19.3 57 9.45 10.6 0 0 1015.3 0 21.1 25.7 40.5 106.3 102.5 353.4
05/09 05:00 19.4 56 9.34 10.4 0 0 1015.1 0 20.9 25.5 40.0 105.0 100.9 348.1

Last Refresh: 05-Sep-2026 21:37:22

Bureau of Meteorology